Time;durP1;ratioP1;P1;durP2;ratioP2;P2;SDS_P1;SDS_P2;PMS_P1;PMS_P2;Temp;Humidity;BMP_temperature;BMP_pressure;BME280_temperature;BME280_humidity;BME280_pressure;Samples;Min_cycle;Max_cycle;Signal;HPM_P1;HPM_P2
2021/04/29 00:00:40;;;;;;;16.17;14.60;;;12.50;99.90;;;;;;4957426;29;20468;-63
2021/04/29 00:03:06;;;;;;;16.40;14.83;;;12.50;99.90;;;;;;4956979;29;20483;-64
2021/04/29 00:05:33;;;;;;;16.00;14.50;;;12.40;99.90;;;;;;4957075;29;20883;-64
2021/04/29 00:07:59;;;;;;;15.17;13.87;;;12.40;99.90;;;;;;4957485;29;20455;-64
2021/04/29 00:10:30;;;;;;;17.03;15.43;;;12.30;99.90;;;;;;4957345;29;20455;-64
2021/04/29 00:12:57;;;;;;;15.77;14.10;;;12.20;99.90;;;;;;4957001;29;20881;-64
2021/04/29 00:15:23;;;;;;;15.10;13.73;;;12.20;99.90;;;;;;4957240;29;20796;-64
2021/04/29 00:17:49;;;;;;;16.07;14.50;;;12.20;99.90;;;;;;4957112;29;20459;-63
2021/04/29 00:20:17;;;;;;;16.20;14.17;;;12.20;99.90;;;;;;4957120;29;20463;-64
2021/04/29 00:22:44;;;;;;;16.30;14.80;;;12.20;99.90;;;;;;4956666;29;20986;-64
2021/04/29 00:25:12;;;;;;;15.27;13.87;;;12.20;99.90;;;;;;4957070;29;20460;-63
2021/04/29 00:27:38;;;;;;;17.10;15.60;;;12.20;99.90;;;;;;4956935;29;20470;-64
2021/04/29 00:30:07;;;;;;;15.77;14.37;;;12.10;99.90;;;;;;4957081;29;20532;-65
2021/04/29 00:32:34;;;;;;;16.07;14.57;;;12.20;99.90;;;;;;4956775;29;20475;-65
2021/04/29 00:35:00;;;;;;;14.60;13.30;;;12.20;99.90;;;;;;4956477;29;20455;-64
2021/04/29 00:37:26;;;;;;;15.80;14.20;;;12.20;99.90;;;;;;4956948;29;20455;-64
2021/04/29 00:39:52;;;;;;;15.70;14.10;;;12.30;99.90;;;;;;4956583;29;20479;-64
2021/04/29 00:42:19;;;;;;;15.83;14.17;;;12.30;99.90;;;;;;4956682;29;20494;-64
2021/04/29 00:44:45;;;;;;;20.07;14.23;;;12.30;99.90;;;;;;4956743;29;20459;-65
2021/04/29 00:47:13;;;;;;;16.63;14.93;;;12.30;99.90;;;;;;4960339;29;20477;-63
2021/04/29 00:49:39;;;;;;;17.23;14.83;;;12.20;99.90;;;;;;4960243;29;20459;-63
2021/04/29 00:52:06;;;;;;;18.47;16.40;;;12.20;99.90;;;;;;4956123;29;20834;-64
2021/04/29 00:54:32;;;;;;;18.13;16.43;;;12.20;99.90;;;;;;4956351;29;20459;-64
2021/04/29 00:56:59;;;;;;;17.13;15.53;;;12.10;99.90;;;;;;4956310;29;20462;-64
2021/04/29 00:59:25;;;;;;;18.20;16.27;;;12.10;99.90;;;;;;4955935;29;20476;-64
2021/04/29 01:02:00;;;;;;;18.13;16.47;;;12.10;99.90;;;;;;4955697;29;21017;-63
2021/04/29 01:04:34;;;;;;;18.47;16.77;;;12.10;99.90;;;;;;4956156;29;20450;-65
2021/04/29 01:07:04;;;;;;;17.50;15.80;;;12.10;99.90;;;;;;4956024;29;20926;-64
2021/04/29 01:09:37;;;;;;;18.60;16.87;;;12.20;99.90;;;;;;4956216;29;20807;-65
2021/04/29 01:12:07;;;;;;;18.77;16.90;;;12.30;99.90;;;;;;4956080;29;20517;-65
2021/04/29 01:14:35;;;;;;;19.03;17.13;;;12.30;99.90;;;;;;4956083;29;20440;-65
2021/04/29 01:17:02;;;;;;;18.70;16.97;;;12.40;99.90;;;;;;4955670;29;20914;-64
2021/04/29 01:19:39;;;;;;;19.03;17.03;;;12.50;99.90;;;;;;4955976;29;20479;-64
2021/04/29 01:22:07;;;;;;;19.60;16.13;;;12.60;99.90;;;;;;4955774;28;20479;-65
2021/04/29 01:24:50;;;;;;;21.50;17.70;;;12.60;99.90;;;;;;4955818;29;20459;-65
2021/04/29 01:27:18;;;;;;;17.73;16.13;;;12.70;99.90;;;;;;4955732;29;20439;-64
2021/04/29 01:29:45;;;;;;;17.20;15.60;;;12.80;99.90;;;;;;4955804;29;20455;-66
2021/04/29 01:32:12;;;;;;;17.60;16.00;;;12.80;99.90;;;;;;4958783;29;20475;-65
2021/04/29 01:34:39;;;;;;;18.53;16.63;;;12.90;99.90;;;;;;4962159;29;20467;-64
2021/04/29 01:37:07;;;;;;;18.23;16.00;;;13.00;99.90;;;;;;4955262;29;20546;-63
2021/04/29 01:39:34;;;;;;;15.60;14.00;;;13.00;99.90;;;;;;4955075;29;20830;-63
2021/04/29 01:42:01;;;;;;;12.03;11.00;;;13.00;99.90;;;;;;4955385;29;20484;-64
2021/04/29 01:44:28;;;;;;;11.07;9.07;;;13.10;99.90;;;;;;4955535;29;20462;-63
2021/04/29 01:46:57;;;;;;;10.93;9.83;;;13.10;99.90;;;;;;4955677;29;20455;-64
2021/04/29 01:49:24;;;;;;;9.80;9.00;;;13.00;99.90;;;;;;4955497;29;20455;-64
2021/04/29 01:51:52;;;;;;;9.97;9.17;;;12.90;99.90;;;;;;4956042;29;20539;-64
2021/04/29 01:54:18;;;;;;;9.40;8.60;;;12.80;99.90;;;;;;4955984;29;20821;-64
2021/04/29 01:56:46;;;;;;;11.53;10.37;;;12.80;99.90;;;;;;4955860;29;20455;-63
2021/04/29 01:59:12;;;;;;;11.60;10.57;;;12.90;99.90;;;;;;4955272;29;20530;-64
2021/04/29 02:01:40;;;;;;;11.30;10.20;;;12.80;99.90;;;;;;4955060;29;20483;-64
2021/04/29 02:04:07;;;;;;;11.10;10.10;;;12.80;99.90;;;;;;4955452;29;20457;-63
2021/04/29 02:06:34;;;;;;;10.07;9.27;;;12.90;99.90;;;;;;4955118;29;20455;-63
2021/04/29 02:09:00;;;;;;;11.10;10.07;;;12.90;99.90;;;;;;4955375;29;20457;-64
2021/04/29 02:11:29;;;;;;;11.30;9.83;;;12.90;99.90;;;;;;4955302;29;20479;-64
2021/04/29 02:13:58;;;;;;;12.17;10.60;;;12.90;99.90;;;;;;4955385;29;20455;-65
2021/04/29 02:16:31;;;;;;;10.10;9.20;;;13.00;99.90;;;;;;4955596;29;20820;-65
2021/04/29 02:19:02;;;;;;;11.07;10.13;;;13.10;99.90;;;;;;4955428;29;20467;-64
2021/04/29 02:21:29;;;;;;;11.07;10.13;;;13.10;99.90;;;;;;4955790;29;20498;-64
2021/04/29 02:23:55;;;;;;;10.60;9.57;;;13.10;99.90;;;;;;4955604;29;20462;-63
2021/04/29 02:26:22;;;;;;;11.67;10.63;;;13.20;99.90;;;;;;4955226;29;20456;-65
2021/04/29 02:28:49;;;;;;;11.97;10.90;;;13.20;99.90;;;;;;4956080;29;20510;-64
2021/04/29 02:31:17;;;;;;;12.43;11.20;;;13.30;99.90;;;;;;4954957;29;20455;-64
2021/04/29 02:33:43;;;;;;;11.17;10.27;;;13.30;99.90;;;;;;4954788;28;21010;-64
2021/04/29 02:36:11;;;;;;;12.87;11.77;;;13.30;99.90;;;;;;4958946;29;20459;-65
2021/04/29 02:38:38;;;;;;;13.23;12.03;;;13.30;99.90;;;;;;4959384;29;20474;-64
2021/04/29 02:41:05;;;;;;;12.40;11.40;;;13.30;99.90;;;;;;4959966;29;20455;-63
2021/04/29 02:43:32;;;;;;;13.10;11.17;;;13.30;99.90;;;;;;4959478;29;20510;-65
2021/04/29 02:45:59;;;;;;;12.33;11.13;;;13.30;99.90;;;;;;4958788;29;20463;-63
2021/04/29 02:48:26;;;;;;;11.33;10.50;;;13.30;99.90;;;;;;4958421;29;20946;-64
2021/04/29 02:50:53;;;;;;;12.73;11.60;;;13.30;99.90;;;;;;4958671;29;20459;-63
2021/04/29 02:53:21;;;;;;;12.73;11.70;;;13.20;99.90;;;;;;4958734;29;20482;-65
2021/04/29 02:55:49;;;;;;;11.40;10.33;;;13.20;99.90;;;;;;4958504;29;20494;-64
2021/04/29 02:58:17;;;;;;;10.60;9.60;;;13.10;99.90;;;;;;4958366;29;20507;-64
2021/04/29 03:00:44;;;;;;;9.37;8.40;;;13.00;99.90;;;;;;4958560;29;20455;-63
2021/04/29 03:03:11;;;;;;;8.40;7.80;;;12.90;99.90;;;;;;4958051;29;20546;-63
2021/04/29 03:05:38;;;;;;;9.70;8.90;;;12.80;99.90;;;;;;4959057;29;20463;-64
2021/04/29 03:08:05;;;;;;;9.83;9.00;;;12.70;99.90;;;;;;4958557;29;20471;-64
2021/04/29 03:10:32;;;;;;;10.03;9.13;;;12.70;99.90;;;;;;4958446;29;20459;-64
2021/04/29 03:12:58;;;;;;;9.83;8.93;;;12.70;99.90;;;;;;4959349;29;20997;-65
2021/04/29 03:15:25;;;;;;;7.73;7.03;;;12.60;99.90;;;;;;4958240;29;20459;-66
2021/04/29 03:17:51;;;;;;;8.90;8.10;;;12.50;99.90;;;;;;4958462;29;20455;-64
2021/04/29 03:20:17;;;;;;;7.77;7.07;;;12.50;99.90;;;;;;4958064;29;20479;-64
2021/04/29 03:22:44;;;;;;;6.97;6.27;;;12.50;99.90;;;;;;4958012;29;20479;-64
2021/04/29 03:25:11;;;;;;;6.80;6.10;;;12.50;99.90;;;;;;4957814;29;20972;-64
2021/04/29 03:27:38;;;;;;;6.60;6.10;;;12.30;99.90;;;;;;4957992;29;20470;-64
2021/04/29 03:30:06;;;;;;;7.23;6.60;;;12.20;99.90;;;;;;4958080;29;20451;-65
2021/04/29 03:32:32;;;;;;;6.60;6.03;;;12.20;99.90;;;;;;4957902;29;20486;-65
2021/04/29 03:34:58;;;;;;;6.37;5.90;;;12.10;99.90;;;;;;4957884;29;20459;-64
2021/04/29 03:37:24;;;;;;;5.23;4.73;;;12.10;99.90;;;;;;4957939;29;20494;-64
2021/04/29 03:39:51;;;;;;;5.20;4.80;;;12.10;99.90;;;;;;4957472;29;20486;-64
2021/04/29 03:42:18;;;;;;;4.90;4.40;;;12.00;99.90;;;;;;4957724;29;20484;-64
2021/04/29 03:44:45;;;;;;;5.23;4.83;;;12.00;99.90;;;;;;4957345;29;20838;-64
2021/04/29 03:47:11;;;;;;;4.40;4.10;;;12.00;99.90;;;;;;4956826;28;20448;-65
2021/04/29 03:49:37;;;;;;;4.50;4.10;;;12.00;99.90;;;;;;4957848;29;20452;-64
2021/04/29 03:52:04;;;;;;;4.27;3.40;;;11.90;99.90;;;;;;4957148;29;20854;-64
2021/04/29 03:54:30;;;;;;;3.67;3.27;;;11.90;99.90;;;;;;4957187;29;20958;-64
2021/04/29 03:56:56;;;;;;;3.30;3.10;;;11.90;99.90;;;;;;4959219;29;20456;-63
2021/04/29 03:59:23;;;;;;;3.53;3.33;;;11.80;99.90;;;;;;4958000;29;20486;-64
2021/04/29 04:01:51;;;;;;;3.87;3.57;;;11.80;99.90;;;;;;4957464;29;20921;-65
2021/04/29 04:04:17;;;;;;;3.40;3.20;;;11.80;99.90;;;;;;4972017;29;20456;-65
2021/04/29 04:06:43;;;;;;;4.60;3.80;;;11.80;99.90;;;;;;4965834;29;20454;-65
2021/04/29 04:09:10;;;;;;;3.83;3.50;;;11.80;99.90;;;;;;4957795;29;20935;-65
2021/04/29 04:11:36;;;;;;;3.33;3.13;;;11.80;99.90;;;;;;4959041;29;20486;-66
2021/04/29 04:14:02;;;;;;;6.20;3.37;;;11.80;99.90;;;;;;4958303;29;20456;-65
2021/04/29 04:16:29;;;;;;;3.30;3.10;;;11.80;99.90;;;;;;4958314;29;20456;-64
2021/04/29 04:18:56;;;;;;;3.43;3.23;;;11.80;99.90;;;;;;4958743;29;20487;-64
2021/04/29 04:21:23;;;;;;;6.97;3.40;;;11.90;99.90;;;;;;4957691;29;20472;-64
2021/04/29 04:23:49;;;;;;;3.30;3.10;;;11.90;99.90;;;;;;4957989;29;20463;-65
2021/04/29 04:26:15;;;;;;;3.80;3.60;;;11.90;99.90;;;;;;4957890;29;20460;-64
2021/04/29 04:28:42;;;;;;;4.37;3.80;;;11.90;99.90;;;;;;4957637;29;20480;-64
2021/04/29 04:31:08;;;;;;;4.40;4.10;;;11.90;99.90;;;;;;4957715;29;20459;-64
2021/04/29 04:33:34;;;;;;;4.00;3.80;;;11.90;99.90;;;;;;4957707;29;20466;-64
2021/04/29 04:36:02;;;;;;;4.47;4.17;;;11.90;99.90;;;;;;4957183;29;20831;-64
2021/04/29 04:38:29;;;;;;;4.67;4.37;;;11.90;99.90;;;;;;4956690;29;20514;-64
2021/04/29 04:40:55;;;;;;;3.93;3.63;;;11.90;99.90;;;;;;4957275;29;20456;-65
2021/04/29 04:43:21;;;;;;;4.13;3.83;;;11.90;99.90;;;;;;4956885;29;21021;-66
2021/04/29 04:45:48;;;;;;;4.20;3.90;;;11.90;99.90;;;;;;4957060;29;20462;-64
2021/04/29 04:48:14;;;;;;;5.30;4.20;;;12.00;99.90;;;;;;4956948;29;20456;-64
2021/04/29 04:50:40;;;;;;;3.93;3.20;;;12.00;99.90;;;;;;4958331;29;20452;-65
2021/04/29 04:53:07;;;;;;;3.70;3.50;;;12.00;99.90;;;;;;4957090;29;20504;-64
2021/04/29 04:55:35;;;;;;;3.80;3.50;;;12.00;99.90;;;;;;4956790;29;20463;-63
2021/04/29 04:58:02;;;;;;;3.70;3.50;;;12.10;99.90;;;;;;4955624;28;20468;-64
2021/04/29 05:00:28;;;;;;;3.93;3.60;;;12.10;99.90;;;;;;4956832;29;20820;-64
2021/04/29 05:02:56;;;;;;;3.93;3.50;;;12.20;99.90;;;;;;4956572;29;20487;-63
2021/04/29 05:05:22;;;;;;;3.30;3.10;;;12.20;99.90;;;;;;4957048;29;20538;-64
2021/04/29 05:07:48;;;;;;;2.70;2.60;;;12.40;99.90;;;;;;4956555;29;20459;-64
2021/04/29 05:10:15;;;;;;;3.20;3.00;;;12.40;99.90;;;;;;4956550;29;20451;-67
2021/04/29 05:12:42;;;;;;;2.93;2.73;;;12.50;99.90;;;;;;4956452;29;20475;-64
2021/04/29 05:15:08;;;;;;;2.80;2.63;;;12.60;99.90;;;;;;4956273;29;20459;-64
2021/04/29 05:17:35;;;;;;;2.97;2.80;;;12.60;99.90;;;;;;4956269;29;20463;-64
2021/04/29 05:20:01;;;;;;;2.90;2.70;;;12.80;99.90;;;;;;4955969;29;20483;-63
2021/04/29 05:22:27;;;;;;;2.83;2.63;;;12.80;99.90;;;;;;4955854;29;20479;-62
2021/04/29 05:24:53;;;;;;;5.70;2.23;;;13.00;99.90;;;;;;4956015;29;20514;-63
2021/04/29 05:27:20;;;;;;;2.23;2.13;;;13.00;99.90;;;;;;4955998;29;20466;-62
2021/04/29 05:29:48;;;;;;;2.67;2.57;;;13.10;99.90;;;;;;4956027;29;20452;-63
2021/04/29 05:32:14;;;;;;;2.60;2.40;;;13.20;99.90;;;;;;4956133;29;20481;-63
2021/04/29 05:34:41;;;;;;;2.40;2.30;;;13.20;99.90;;;;;;4956134;29;20526;-63
2021/04/29 05:37:07;;;;;;;4.17;2.30;;;13.10;99.90;;;;;;4956317;29;20467;-64
2021/04/29 05:39:33;;;;;;;2.63;2.53;;;13.20;99.90;;;;;;4955672;29;20483;-64
2021/04/29 05:41:59;;;;;;;2.87;2.77;;;13.20;99.90;;;;;;4955506;29;20488;-64
2021/04/29 05:44:26;;;;;;;3.73;2.60;;;13.20;99.90;;;;;;4955844;29;20466;-63
2021/04/29 05:46:53;;;;;;;2.77;2.50;;;13.20;99.90;;;;;;4955916;29;20510;-63
2021/04/29 05:49:19;;;;;;;2.50;2.40;;;13.20;99.90;;;;;;4955786;29;20460;-64
2021/04/29 05:51:45;;;;;;;2.70;2.50;;;13.20;99.90;;;;;;4955878;29;20479;-63
2021/04/29 05:54:11;;;;;;;3.10;2.40;;;13.10;99.90;;;;;;4955749;29;20466;-64
2021/04/29 05:56:37;;;;;;;3.00;2.80;;;13.10;99.90;;;;;;4955932;29;20444;-64
2021/04/29 05:59:04;;;;;;;4.40;2.57;;;13.20;99.90;;;;;;4955764;29;20483;-64
2021/04/29 06:01:32;;;;;;;2.63;2.43;;;13.10;99.90;;;;;;4955534;29;20483;-63
2021/04/29 06:03:58;;;;;;;3.37;3.17;;;13.20;99.90;;;;;;4955612;29;20969;-63
2021/04/29 06:06:24;;;;;;;2.60;2.50;;;13.30;99.90;;;;;;4956054;29;20456;-64
2021/04/29 06:08:50;;;;;;;2.53;2.43;;;13.40;99.90;;;;;;4966980;28;20452;-63
2021/04/29 06:11:17;;;;;;;2.60;2.50;;;13.50;99.90;;;;;;4970885;29;20455;-63
2021/04/29 06:13:44;;;;;;;3.20;2.30;;;13.60;99.90;;;;;;4965432;28;20461;-64
2021/04/29 06:16:10;;;;;;;2.20;2.10;;;13.80;99.90;;;;;;4962319;28;20451;-63
2021/04/29 06:18:37;;;;;;;2.80;2.50;;;14.00;99.90;;;;;;4961983;29;20830;-63
2021/04/29 06:21:04;;;;;;;2.90;2.20;;;14.10;99.90;;;;;;4961770;28;20455;-63
2021/04/29 06:23:32;;;;;;;3.30;3.00;;;14.40;99.90;;;;;;4964538;28;20455;-63
2021/04/29 06:25:58;;;;;;;3.50;3.20;;;14.40;99.90;;;;;;4963955;28;20463;-62
2021/04/29 06:28:24;;;;;;;3.27;3.07;;;14.50;99.90;;;;;;4963089;29;20478;-63
2021/04/29 06:30:51;;;;;;;4.07;3.30;;;14.60;99.90;;;;;;4962414;28;20451;-64
2021/04/29 06:33:17;;;;;;;3.93;3.60;;;15.00;99.90;;;;;;4963214;29;20479;-63
2021/04/29 06:35:44;;;;;;;3.70;2.97;;;15.40;99.90;;;;;;4963640;28;20455;-64
2021/04/29 06:38:10;;;;;;;3.93;2.83;;;15.70;99.90;;;;;;4963064;28;20459;-63
2021/04/29 06:40:36;;;;;;;3.37;3.17;;;16.40;99.90;;;;;;4962940;29;20483;-64
2021/04/29 06:43:02;;;;;;;5.63;3.37;;;17.00;99.90;;;;;;4962181;29;20471;-63
2021/04/29 06:45:29;;;;;;;4.20;3.90;;;17.40;99.90;;;;;;4962060;28;20466;-64
2021/04/29 06:47:55;;;;;;;3.40;3.20;;;17.70;99.90;;;;;;4961788;29;20455;-63
2021/04/29 06:50:21;;;;;;;4.00;3.70;;;18.10;99.90;;;;;;4962240;29;20848;-65
2021/04/29 06:52:48;;;;;;;3.63;3.13;;;18.30;99.90;;;;;;4963753;29;20483;-64
2021/04/29 06:55:14;;;;;;;3.77;3.57;;;18.70;99.90;;;;;;4961956;29;20494;-64
2021/04/29 06:57:41;;;;;;;4.83;3.70;;;19.10;99.90;;;;;;4961241;29;20946;-64
2021/04/29 07:00:08;;;;;;;4.10;3.70;;;19.60;99.90;;;;;;4961427;29;20502;-63
2021/04/29 07:02:35;;;;;;;6.93;4.00;;;20.10;99.90;;;;;;4960957;29;20993;-63
2021/04/29 07:05:01;;;;;;;5.80;4.57;;;20.40;99.90;;;;;;4962456;29;20531;-64
2021/04/29 07:07:27;;;;;;;5.00;3.70;;;20.30;99.90;;;;;;4962369;29;20459;-65
2021/04/29 07:09:54;;;;;;;4.60;4.30;;;20.10;99.90;;;;;;4962438;29;20458;-64
2021/04/29 07:12:20;;;;;;;4.27;3.97;;;19.70;99.90;;;;;;4962975;28;20479;-65
2021/04/29 07:14:47;;;;;;;8.07;4.00;;;19.50;99.90;;;;;;4963112;28;20455;-65
2021/04/29 07:17:14;;;;;;;4.37;4.07;;;19.40;99.90;;;;;;4962919;28;20459;-65
2021/04/29 07:19:40;;;;;;;4.43;4.13;;;19.50;99.90;;;;;;4961855;28;20464;-64
2021/04/29 07:22:06;;;;;;;5.57;4.40;;;19.90;99.90;;;;;;4958506;28;20483;-65
2021/04/29 07:24:33;;;;;;;7.77;4.60;;;20.20;99.90;;;;;;4958300;29;20462;-65
2021/04/29 07:27:01;;;;;;;4.67;4.10;;;20.30;99.90;;;;;;4958555;29;20456;-65
2021/04/29 07:29:28;;;;;;;5.17;4.43;;;20.30;99.90;;;;;;4958541;29;20460;-64
2021/04/29 07:31:54;;;;;;;5.00;4.50;;;20.10;99.90;;;;;;4958922;29;20509;-64
2021/04/29 07:34:20;;;;;;;5.57;5.07;;;20.10;99.90;;;;;;4968036;29;20451;-64
2021/04/29 07:36:47;;;;;;;5.53;4.10;;;20.00;99.90;;;;;;4966960;29;20460;-64
2021/04/29 07:39:13;;;;;;;5.73;5.23;;;19.50;99.90;;;;;;4958398;29;20475;-64
2021/04/29 07:41:39;;;;;;;5.23;4.70;;;19.30;99.90;;;;;;4958235;29;20987;-64
2021/04/29 07:44:06;;;;;;;6.00;5.50;;;18.90;99.90;;;;;;4958233;29;20464;-64
2021/04/29 07:46:32;;;;;;;5.07;4.70;;;18.40;99.90;;;;;;4958246;29;20494;-65
2021/04/29 07:48:59;;;;;;;4.97;4.67;;;18.70;99.90;;;;;;4958183;29;21022;-64
2021/04/29 07:51:26;;;;;;;6.07;5.03;;;19.20;99.90;;;;;;4958734;29;20476;-65
2021/04/29 07:53:52;;;;;;;5.40;4.90;;;20.10;99.90;;;;;;4958360;29;20955;-64
2021/04/29 07:56:18;;;;;;;5.53;5.03;;;21.10;99.90;;;;;;4958540;29;21120;-64
2021/04/29 07:58:44;;;;;;;6.07;5.20;;;21.40;96.70;;;;;;4958261;29;20440;-64
2021/04/29 08:01:12;;;;;;;5.83;5.43;;;20.90;96.20;;;;;;4958021;29;20518;-64
2021/04/29 08:03:38;;;;;;;6.07;5.57;;;21.10;97.10;;;;;;4958607;29;20499;-64
2021/04/29 08:06:04;;;;;;;6.23;5.57;;;21.60;95.10;;;;;;4958319;29;20455;-64
2021/04/29 08:08:31;;;;;;;9.17;6.03;;;21.80;94.50;;;;;;4958382;29;20455;-64
2021/04/29 08:10:57;;;;;;;6.57;5.53;;;21.70;94.30;;;;;;4959015;29;20451;-64
2021/04/29 08:13:23;;;;;;;6.67;5.73;;;21.20;93.60;;;;;;4960508;29;20998;-64
2021/04/29 08:15:49;;;;;;;6.07;5.60;;;20.70;95.00;;;;;;4963263;29;20455;-63
2021/04/29 08:18:16;;;;;;;13.03;5.57;;;20.60;95.60;;;;;;4963550;29;20451;-63
2021/04/29 08:20:42;;;;;;;7.80;6.40;;;20.30;94.90;;;;;;4960324;29;20479;-64
2021/04/29 08:23:09;;;;;;;7.83;6.47;;;20.70;95.40;;;;;;4959570;29;20531;-64
2021/04/29 08:25:35;;;;;;;6.80;6.30;;;20.60;95.00;;;;;;4960643;29;20458;-63
2021/04/29 08:28:01;;;;;;;6.13;5.57;;;20.10;95.20;;;;;;4958999;29;20955;-63
2021/04/29 08:30:28;;;;;;;6.83;5.67;;;20.00;96.60;;;;;;4968895;29;20478;-64
2021/04/29 08:32:55;;;;;;;8.93;6.10;;;20.20;96.90;;;;;;4969069;28;20503;-64
2021/04/29 08:35:22;;;;;;;7.40;6.77;;;20.40;95.90;;;;;;4966978;29;20459;-63
2021/04/29 08:37:49;;;;;;;6.77;6.17;;;20.50;96.90;;;;;;4960264;29;20439;-63
2021/04/29 08:40:15;;;;;;;12.23;7.20;;;21.00;97.00;;;;;;4963833;29;20463;-64
2021/04/29 08:42:43;;;;;;;9.63;6.80;;;21.20;94.00;;;;;;4961358;29;20499;-64
2021/04/29 08:45:10;;;;;;;7.80;7.07;;;21.50;93.70;;;;;;4958551;29;20514;-64
2021/04/29 08:47:37;;;;;;;7.87;7.27;;;21.50;92.00;;;;;;4957923;29;20560;-63
2021/04/29 08:50:05;;;;;;;7.07;6.40;;;21.30;92.30;;;;;;4957300;29;20467;-64
2021/04/29 08:52:32;;;;;;;8.73;7.93;;;21.70;93.10;;;;;;4957357;29;20475;-63
2021/04/29 08:54:59;;;;;;;10.10;8.13;;;21.10;90.50;;;;;;4957870;29;20490;-65
2021/04/29 08:57:26;;;;;;;7.30;6.70;;;21.00;92.40;;;;;;4957421;29;20455;-64
2021/04/29 08:59:53;;;;;;;11.13;7.20;;;21.00;93.40;;;;;;4958386;29;20475;-63
2021/04/29 09:02:32;;;;;;;8.50;7.67;;;20.70;93.30;;;;;;4956799;29;20488;-64
2021/04/29 09:05:09;;;;;;;8.50;7.70;;;20.10;94.90;;;;;;4956665;29;20786;-63
2021/04/29 09:07:36;;;;;;;9.97;8.97;;;19.70;94.20;;;;;;4956377;29;20454;-63
2021/04/29 09:10:04;;;;;;;8.73;8.00;;;19.20;96.80;;;;;;4956424;29;20452;-64
2021/04/29 09:12:33;;;;;;;9.17;8.40;;;19.00;98.90;;;;;;4956015;29;20940;-64
2021/04/29 09:14:59;;;;;;;10.47;9.30;;;18.70;99.90;;;;;;4956213;29;20450;-64
2021/04/29 09:17:25;;;;;;;8.20;7.40;;;18.80;99.90;;;;;;4955975;29;20455;-64
2021/04/29 09:19:52;;;;;;;8.87;7.97;;;18.70;99.90;;;;;;4956602;29;20483;-65
2021/04/29 09:22:20;;;;;;;10.23;8.00;;;18.60;99.90;;;;;;4956747;29;20487;-65
2021/04/29 09:24:47;;;;;;;11.37;7.90;;;18.10;99.90;;;;;;4957087;29;20455;-64
2021/04/29 09:27:15;;;;;;;10.00;7.90;;;17.60;99.90;;;;;;4957119;29;20459;-63
2021/04/29 09:29:54;;;;;;;8.70;7.90;;;17.40;99.90;;;;;;4956951;29;20490;-64
2021/04/29 09:32:25;;;;;;;8.40;7.70;;;17.10;99.90;;;;;;4957515;29;20807;-65
2021/04/29 09:34:51;;;;;;;8.73;7.60;;;17.00;99.90;;;;;;4956736;29;20456;-65
2021/04/29 09:37:33;;;;;;;8.20;7.60;;;16.70;99.90;;;;;;4956646;29;20459;-64
2021/04/29 09:40:01;;;;;;;9.53;7.23;;;16.30;99.90;;;;;;4953949;29;20907;-64
2021/04/29 09:42:32;;;;;;;9.13;8.43;;;16.30;99.90;;;;;;4956500;29;20534;-64
2021/04/29 09:45:00;;;;;;;9.57;8.80;;;16.00;99.90;;;;;;4955843;28;21013;-65
2021/04/29 09:47:26;;;;;;;12.50;9.40;;;15.70;99.90;;;;;;4956902;29;20455;-63
2021/04/29 09:49:52;;;;;;;10.70;9.67;;;15.70;99.90;;;;;;4956815;29;20455;-65
2021/04/29 09:52:21;;;;;;;9.70;8.80;;;15.70;99.90;;;;;;4956750;29;20482;-64
2021/04/29 09:54:48;;;;;;;9.17;8.40;;;15.70;99.90;;;;;;4956455;29;20467;-64
2021/04/29 09:57:21;;;;;;;10.30;9.27;;;15.60;99.90;;;;;;4956478;29;20456;-63
2021/04/29 09:59:49;;;;;;;9.83;8.93;;;15.60;99.90;;;;;;4956699;29;20471;-64
2021/04/29 10:02:17;;;;;;;8.40;7.70;;;15.40;99.90;;;;;;4955947;29;20483;-63
2021/04/29 10:04:46;;;;;;;9.20;8.40;;;14.90;99.90;;;;;;4956461;29;20456;-63
2021/04/29 10:07:12;;;;;;;7.00;6.50;;;15.30;99.90;;;;;;4956537;29;20486;-64
2021/04/29 10:09:39;;;;;;;7.57;6.97;;;15.30;99.90;;;;;;4956462;29;20954;-63
2021/04/29 10:12:07;;;;;;;8.33;7.50;;;15.40;99.90;;;;;;4957868;29;20982;-64
2021/04/29 10:14:36;;;;;;;7.20;6.57;;;15.90;99.90;;;;;;4956669;29;20474;-65
2021/04/29 10:17:04;;;;;;;10.20;7.10;;;16.70;99.90;;;;;;4956274;29;20454;-64
2021/04/29 10:19:32;;;;;;;7.40;6.80;;;17.00;99.90;;;;;;4956419;29;20464;-65
2021/04/29 10:22:00;;;;;;;9.13;6.73;;;17.50;99.90;;;;;;4956013;29;20545;-64
2021/04/29 10:24:26;;;;;;;7.03;6.53;;;18.20;99.90;;;;;;4956360;29;20495;-64
2021/04/29 10:27:01;;;;;;;7.87;7.07;;;18.20;99.90;;;;;;4956137;29;20459;-64
2021/04/29 10:29:28;;;;;;;7.10;6.60;;;18.70;99.90;;;;;;4956576;29;20444;-65
2021/04/29 10:31:57;;;;;;;9.27;7.30;;;19.10;99.90;;;;;;4956221;29;20504;-65
2021/04/29 10:34:24;;;;;;;7.93;7.43;;;19.20;99.90;;;;;;4956837;29;20463;-65
2021/04/29 10:36:51;;;;;;;8.93;8.07;;;19.10;99.90;;;;;;4956584;29;20479;-64
2021/04/29 10:39:19;;;;;;;12.80;7.40;;;18.90;99.90;;;;;;4955926;29;20485;-65
2021/04/29 10:41:48;;;;;;;9.67;8.77;;;18.90;99.90;;;;;;4956638;29;20549;-65
2021/04/29 10:44:15;;;;;;;8.07;7.37;;;18.50;99.90;;;;;;4956489;29;20451;-65
2021/04/29 10:46:43;;;;;;;9.03;8.20;;;18.70;99.90;;;;;;4955791;29;20467;-64
2021/04/29 10:49:13;;;;;;;9.07;7.83;;;18.60;99.90;;;;;;4955708;29;20455;-64
2021/04/29 10:51:41;;;;;;;8.27;7.47;;;18.20;99.90;;;;;;4955778;29;20845;-65
2021/04/29 10:54:25;;;;;;;8.17;7.37;;;18.50;99.90;;;;;;4955677;29;20459;-64
2021/04/29 10:57:04;;;;;;;7.17;6.57;;;18.70;99.90;;;;;;4957720;28;20499;-64
2021/04/29 10:59:41;;;;;;;5.57;5.17;;;18.90;99.90;;;;;;4959515;29;20510;-64
2021/04/29 11:02:20;;;;;;;5.20;4.80;;;18.00;99.90;;;;;;4959416;29;20486;-65
2021/04/29 11:04:48;;;;;;;5.27;4.77;;;17.60;99.90;;;;;;4959588;29;20922;-64
2021/04/29 11:07:15;;;;;;;5.40;5.00;;;17.30;99.90;;;;;;4965581;29;20541;-64
2021/04/29 11:09:41;;;;;;;9.63;6.20;;;17.10;99.90;;;;;;4968942;29;20482;-64
2021/04/29 11:12:10;;;;;;;9.27;5.33;;;16.40;99.90;;;;;;4959499;29;21013;-63
2021/04/29 11:14:41;;;;;;;5.50;5.00;;;16.10;99.90;;;;;;4958843;29;20968;-64
2021/04/29 11:17:19;;;;;;;6.43;5.30;;;15.90;99.90;;;;;;4958975;29;20985;-64
2021/04/29 11:19:48;;;;;;;5.20;4.70;;;15.60;99.90;;;;;;4959135;29;20470;-65
2021/04/29 11:22:19;;;;;;;6.50;5.37;;;15.30;99.90;;;;;;4958594;29;20514;-64
2021/04/29 11:24:47;;;;;;;5.90;5.40;;;15.20;99.90;;;;;;4958958;29;20439;-64
2021/04/29 11:27:25;;;;;;;5.53;5.13;;;15.20;99.90;;;;;;4958528;29;21024;-64
2021/04/29 11:29:58;;;;;;;5.57;4.50;;;15.50;99.90;;;;;;4958832;29;20446;-63
2021/04/29 11:32:25;;;;;;;5.13;4.57;;;15.70;99.90;;;;;;4958242;29;20479;-64
2021/04/29 11:34:54;;;;;;;5.00;4.60;;;15.90;99.90;;;;;;4958799;29;20443;-63
2021/04/29 11:37:20;;;;;;;5.43;5.03;;;16.10;99.90;;;;;;4958976;29;20515;-65
2021/04/29 11:39:57;;;;;;;5.00;4.70;;;16.30;99.90;;;;;;4960471;29;20474;-63
2021/04/29 11:42:25;;;;;;;5.63;5.17;;;16.10;99.90;;;;;;4960856;29;20503;-64
2021/04/29 11:44:51;;;;;;;5.93;5.40;;;16.00;99.90;;;;;;4960097;29;20455;-64
2021/04/29 11:47:18;;;;;;;5.60;5.03;;;15.80;99.90;;;;;;4959006;29;20459;-70
2021/04/29 11:49:44;;;;;;;6.43;5.80;;;15.70;99.90;;;;;;4958132;29;20452;-65
2021/04/29 11:52:11;;;;;;;5.60;5.20;;;15.70;99.90;;;;;;4958311;29;20479;-66
2021/04/29 11:54:47;;;;;;;5.70;5.20;;;15.70;99.90;;;;;;4958273;29;20455;-67
2021/04/29 11:57:14;;;;;;;6.17;5.37;;;15.50;99.90;;;;;;4958558;29;20455;-66
2021/04/29 11:59:40;;;;;;;6.57;5.97;;;15.60;99.90;;;;;;4958446;29;20538;-65
2021/04/29 12:02:06;;;;;;;6.40;5.80;;;15.90;99.90;;;;;;4958311;29;20495;-66
2021/04/29 12:04:33;;;;;;;5.53;5.10;;;16.10;99.90;;;;;;4958370;29;20455;-69
2021/04/29 12:07:01;;;;;;;5.23;4.63;;;16.50;99.90;;;;;;4957452;28;20962;-66
2021/04/29 12:09:29;;;;;;;4.97;4.47;;;16.80;99.90;;;;;;4958302;29;20550;-65
2021/04/29 12:11:57;;;;;;;5.20;4.90;;;17.30;99.90;;;;;;4958379;29;20863;-68
2021/04/29 12:14:24;;;;;;;5.10;4.57;;;17.60;99.90;;;;;;4958109;29;20467;-65
2021/04/29 12:16:54;;;;;;;4.83;4.43;;;18.00;99.90;;;;;;4958047;29;20459;-64
2021/04/29 12:19:25;;;;;;;4.47;3.83;;;18.60;99.90;;;;;;4958471;29;20483;-66
2021/04/29 12:21:51;;;;;;;5.10;4.03;;;19.10;99.90;;;;;;4958380;29;20475;-65
2021/04/29 12:24:18;;;;;;;4.60;4.30;;;19.30;98.20;;;;;;4958210;29;20467;-66
2021/04/29 12:26:46;;;;;;;4.10;3.87;;;19.30;97.40;;;;;;4958296;29;20466;-65
2021/04/29 12:29:13;;;;;;;4.63;4.23;;;19.20;96.50;;;;;;4958175;29;20456;-66
2021/04/29 12:31:52;;;;;;;4.90;4.60;;;18.90;94.60;;;;;;4957912;29;20546;-66
2021/04/29 12:34:19;;;;;;;5.10;4.60;;;18.40;95.40;;;;;;4958163;29;20440;-65
2021/04/29 12:36:50;;;;;;;6.43;5.60;;;18.00;95.80;;;;;;4958001;29;20482;-66
2021/04/29 12:39:17;;;;;;;5.97;5.47;;;17.40;96.40;;;;;;4957817;29;20448;-66
2021/04/29 12:41:52;;;;;;;6.47;5.97;;;17.30;97.80;;;;;;4957563;29;20475;-64
2021/04/29 12:44:18;;;;;;;9.60;6.97;;;17.00;98.00;;;;;;4957435;29;20527;-64